Time;durP1;ratioP1;P1;durP2;ratioP2;P2;SDS_P1;SDS_P2;PMS_P1;PMS_P2;Temp;Humidity;BMP_temperature;BMP_pressure;BME280_temperature;BME280_humidity;BME280_pressure;Samples;Min_cycle;Max_cycle;Signal;HPM_P1;HPM_P2
2022/02/18 00:00:56;;;;;;;;;13.33;11.33;;;;;11.16;68.57;100916.13;5100393;27;45316;-75
2022/02/18 00:03:22;;;;;;;;;11.00;9.00;;;;;11.16;68.34;100904.69;5100571;27;45389;-75
2022/02/18 00:05:48;;;;;;;;;10.33;9.00;;;;;11.28;68.60;100929.88;5082362;27;45272;-75
2022/02/18 00:08:13;;;;;;;;;9.00;7.33;;;;;11.29;68.54;100926.25;5100832;27;45293;-74
2022/02/18 00:10:40;;;;;;;;;7.33;7.33;;;;;11.27;68.34;100914.09;5082207;27;46679;-75
2022/02/18 00:13:06;;;;;;;;;6.00;6.00;;;;;11.23;68.47;100919.75;5082084;27;47139;-74
2022/02/18 00:15:31;;;;;;;;;8.67;8.67;;;;;11.24;68.52;100916.13;5100412;27;45248;-75
2022/02/18 00:17:57;;;;;;;;;7.00;7.00;;;;;11.19;68.45;100893.66;5100787;27;45283;-75
2022/02/18 00:20:22;;;;;;;;;8.33;7.00;;;;;11.18;68.96;100898.19;5100464;27;45314;-75
2022/02/18 00:22:48;;;;;;;;;11.67;8.33;;;;;11.16;68.78;100894.06;5100330;27;45357;-74
2022/02/18 00:25:13;;;;;;;;;8.67;6.67;;;;;11.24;68.74;100900.16;5100352;27;45324;-74
2022/02/18 00:27:39;;;;;;;;;9.33;6.67;;;;;11.27;69.26;100900.78;5100647;27;45442;-75
2022/02/18 00:30:06;;;;;;;;;7.67;7.33;;;;;11.28;68.85;100892.63;5100243;27;45273;-75
2022/02/18 00:32:32;;;;;;;;;9.00;8.33;;;;;11.28;68.81;100891.81;5100233;27;46385;-75
2022/02/18 00:34:58;;;;;;;;;7.33;5.67;;;;;11.28;68.69;100859.91;5100349;27;45239;-74
2022/02/18 00:37:25;;;;;;;;;9.00;9.00;;;;;11.26;69.12;100852.09;5100340;27;45269;-75
2022/02/18 00:39:50;;;;;;;;;10.33;7.67;;;;;11.16;69.15;100841.66;5081763;27;46173;-75
2022/02/18 00:42:15;;;;;;;;;8.33;6.00;;;;;11.20;69.51;100866.91;5100290;27;45422;-75
2022/02/18 00:44:42;;;;;;;;;13.00;10.67;;;;;11.24;69.46;100859.41;5100105;27;45283;-76
2022/02/18 00:47:07;;;;;;;;;11.67;7.00;;;;;11.13;70.16;100839.34;5100478;27;45303;-75
2022/02/18 00:49:33;;;;;;;;;10.67;9.33;;;;;11.20;70.21;100848.28;5100047;27;45478;-74
2022/02/18 00:51:58;;;;;;;;;10.33;7.00;;;;;11.22;70.07;100853.41;5100189;27;45516;-74
2022/02/18 00:54:23;;;;;;;;;10.67;9.00;;;;;11.20;70.12;100837.63;5100136;27;45366;-75
2022/02/18 00:56:50;;;;;;;;;10.67;9.67;;;;;11.22;70.50;100834.78;5100237;27;45305;-75
2022/02/18 00:59:16;;;;;;;;;12.67;9.67;;;;;11.17;70.84;100818.56;5102266;27;45390;-75
2022/02/18 01:01:42;;;;;;;;;9.33;9.00;;;;;11.16;70.88;100812.41;5103429;27;45248;-76
2022/02/18 01:04:07;;;;;;;;;9.33;7.67;;;;;11.17;70.77;100819.38;5103503;27;45263;-74
2022/02/18 01:06:34;;;;;;;;;8.67;8.33;;;;;11.16;71.07;100806.25;5103914;27;45400;-75
2022/02/18 01:08:59;;;;;;;;;15.67;11.00;;;;;11.18;71.04;100796.25;5103478;27;45472;-74
2022/02/18 01:11:25;;;;;;;;;12.00;9.33;;;;;11.22;70.31;100793.06;5103627;27;45247;-75
2022/02/18 01:13:50;;;;;;;;;8.33;8.00;;;;;11.24;71.17;100793.72;5103562;27;45308;-75
2022/02/18 01:16:15;;;;;;;;;8.00;8.00;;;;;11.21;71.17;100785.25;5103628;27;45318;-75
2022/02/18 01:18:41;;;;;;;;;8.33;7.00;;;;;11.29;71.64;100789.72;5084840;27;46140;-75
2022/02/18 01:21:07;;;;;;;;;7.67;7.67;;;;;11.30;71.61;100794.84;5103230;27;45378;-75
2022/02/18 01:23:33;;;;;;;;;14.67;11.33;;;;;11.31;71.95;100785.84;5103289;27;45343;-75
2022/02/18 01:25:58;;;;;;;;;8.67;6.67;;;;;11.24;71.47;100764.47;5103417;27;45235;-75
2022/02/18 01:28:24;;;;;;;;;10.00;8.00;;;;;11.30;71.89;100768.25;5103402;27;45494;-74
2022/02/18 01:30:49;;;;;;;;;11.33;9.33;;;;;11.32;72.01;100770.72;5103138;27;45303;-74
2022/02/18 01:33:14;;;;;;;;;9.00;8.67;;;;;11.33;72.05;100751.91;5103240;27;45346;-75
2022/02/18 01:35:40;;;;;;;;;8.00;6.67;;;;;11.31;71.86;100729.16;5103495;27;45408;-75
2022/02/18 01:38:06;;;;;;;;;12.00;8.00;;;;;11.37;72.43;100739.06;5084677;27;47401;-75
2022/02/18 01:40:32;;;;;;;;;8.33;7.67;;;;;11.36;72.67;100732.09;5102838;27;45903;-75
2022/02/18 01:42:59;;;;;;;;;9.33;7.67;;;;;11.35;72.49;100725.94;5084648;27;45241;-75
2022/02/18 01:45:26;;;;;;;;;11.33;9.00;;;;;11.35;72.48;100717.97;5102962;27;45328;-74
2022/02/18 01:47:52;;;;;;;;;7.00;6.67;;;;;11.26;73.08;100680.97;5102991;27;45371;-75
2022/02/18 01:50:18;;;;;;;;;9.33;8.00;;;;;11.36;73.61;100694.84;5084546;27;46966;-75
2022/02/18 01:52:46;;;;;;;;;9.00;8.00;;;;;11.34;73.59;100695.03;5102958;27;45295;-75
2022/02/18 01:55:14;;;;;;;;;9.00;8.00;;;;;11.34;73.46;100683.53;5102975;27;45225;-75
2022/02/18 01:57:44;;;;;;;;;10.67;9.33;;;;;11.31;74.06;100668.78;5102840;27;45208;-74
2022/02/18 02:00:10;;;;;;;;;8.00;6.00;;;;;11.24;74.86;100654.56;5102450;27;45318;-74
2022/02/18 02:02:36;;;;;;;;;9.00;8.67;;;;;11.22;76.68;100652.06;5102611;27;45177;-75
2022/02/18 02:05:04;;;;;;;;;8.33;8.33;;;;;11.16;76.76;100647.47;5084294;27;45269;-75
2022/02/18 02:07:30;;;;;;;;;10.00;10.00;;;;;11.21;78.28;100647.78;5102570;27;45424;-75
2022/02/18 02:09:55;;;;;;;;;7.00;6.00;;;;;11.17;78.73;100632.34;5083106;27;46189;-75
2022/02/18 02:12:20;;;;;;;;;7.33;6.67;;;;;11.10;77.78;100626.91;5102657;27;45380;-75
2022/02/18 02:14:46;;;;;;;;;10.00;7.00;;;;;11.14;79.18;100632.69;5102576;27;45745;-75
2022/02/18 02:17:11;;;;;;;;;9.00;7.00;;;;;11.11;79.44;100610.75;5102516;27;45570;-75
2022/02/18 02:19:37;;;;;;;;;8.33;7.67;;;;;11.08;78.92;100605.81;5102528;27;46018;-74
2022/02/18 02:22:02;;;;;;;;;7.00;5.00;;;;;11.16;79.76;100617.41;5102196;27;45312;-76
2022/02/18 02:24:28;;;;;;;;;6.00;6.00;;;;;11.07;80.39;100598.84;5102639;27;45302;-75
2022/02/18 02:26:53;;;;;;;;;7.67;5.00;;;;;11.10;80.44;100595.00;5102374;27;45514;-75
2022/02/18 02:29:19;;;;;;;;;4.33;4.33;;;;;11.10;81.18;100584.34;5102446;27;46317;-75
2022/02/18 02:31:45;;;;;;;;;3.00;3.00;;;;;11.03;80.93;100576.28;5102184;27;45320;-75
2022/02/18 02:34:10;;;;;;;;;6.67;5.67;;;;;11.20;81.02;100589.41;5102554;27;45252;-75
2022/02/18 02:36:36;;;;;;;;;4.00;4.00;;;;;11.17;81.01;100566.69;5083919;27;47069;-75
2022/02/18 02:39:02;;;;;;;;;3.00;3.00;;;;;11.16;81.32;100573.00;5083193;27;46184;-76
2022/02/18 02:41:27;;;;;;;;;3.00;3.00;;;;;11.20;81.35;100576.94;5063542;28;45229;-75
2022/02/18 02:43:53;;;;;;;;;3.33;3.00;;;;;11.19;83.64;100569.97;5081693;28;45267;-75
2022/02/18 02:46:18;;;;;;;;;3.33;3.33;;;;;11.18;82.38;100567.47;5081439;28;45219;-75
2022/02/18 02:48:44;;;;;;;;;3.00;3.00;;;;;11.29;83.16;100575.03;5063196;28;47077;-75
2022/02/18 02:51:10;;;;;;;;;3.67;3.67;;;;;11.31;84.50;100572.19;5081538;28;45201;-76
2022/02/18 02:53:37;;;;;;;;;2.67;2.67;;;;;11.30;83.75;100571.34;5081809;28;45381;-75
2022/02/18 02:56:03;;;;;;;;;3.67;3.67;;;;;11.26;83.79;100547.94;5063037;28;45344;-76
2022/02/18 02:58:28;;;;;;;;;4.00;4.00;;;;;11.33;83.68;100540.88;5081245;28;46350;-76
2022/02/18 03:00:54;;;;;;;;;3.67;3.33;;;;;11.34;84.83;100526.56;5062883;28;45253;-75
2022/02/18 03:03:19;;;;;;;;;3.67;3.67;;;;;11.34;84.92;100531.88;5063173;28;45265;-76
2022/02/18 03:05:44;;;;;;;;;5.00;5.00;;;;;11.42;84.46;100537.13;5081239;28;45300;-76
2022/02/18 03:08:10;;;;;;;;;3.67;3.67;;;;;11.44;85.46;100529.75;5062886;28;48159;-76
2022/02/18 03:10:35;;;;;;;;;4.00;4.00;;;;;11.30;85.61;100499.53;5081193;28;45261;-76
2022/02/18 03:13:03;;;;;;;;;5.00;4.00;;;;;11.49;85.46;100518.56;5081360;28;45207;-75
2022/02/18 03:15:28;;;;;;;;;4.67;4.67;;;;;11.46;86.72;100501.16;5079666;28;46366;-76
2022/02/18 03:17:54;;;;;;;;;5.33;5.00;;;;;11.57;85.31;100507.00;5080833;28;45224;-76
2022/02/18 03:20:19;;;;;;;;;4.00;3.00;;;;;11.53;85.55;100482.59;5081070;28;45317;-75
2022/02/18 03:22:45;;;;;;;;;4.00;4.00;;;;;11.64;85.05;100504.44;5079841;28;45221;-75
2022/02/18 03:25:10;;;;;;;;;6.00;6.00;;;;;11.66;85.02;100495.22;5062657;28;46255;-76
2022/02/18 03:27:37;;;;;;;;;4.00;4.00;;;;;11.72;85.48;100486.50;5080673;28;45375;-75
2022/02/18 03:30:04;;;;;;;;;5.00;4.00;;;;;11.73;85.75;100488.16;5080789;28;45362;-75
2022/02/18 03:32:30;;;;;;;;;5.33;4.00;;;;;11.80;85.64;100480.25;5080845;28;45332;-76
2022/02/18 03:34:56;;;;;;;;;5.00;4.33;;;;;11.69;85.97;100462.91;5080875;28;45339;-75
2022/02/18 03:37:22;;;;;;;;;6.00;6.00;;;;;11.78;85.43;100474.28;5084691;27;45917;-75
2022/02/18 03:39:48;;;;;;;;;4.33;3.33;;;;;11.86;86.46;100470.66;5101170;27;45496;-75
2022/02/18 03:42:13;;;;;;;;;4.67;4.67;;;;;11.80;87.36;100458.09;5101182;27;45669;-76
2022/02/18 03:44:38;;;;;;;;;4.33;4.33;;;;;11.83;86.86;100439.91;5101020;27;45367;-75
2022/02/18 03:47:04;;;;;;;;;4.00;3.67;;;;;11.87;86.80;100451.00;5101115;27;45204;-76
2022/02/18 03:49:29;;;;;;;;;3.00;3.00;;;;;11.99;86.65;100454.81;5101224;27;45278;-76
2022/02/18 03:51:55;;;;;;;;;3.33;3.33;;;;;12.00;86.44;100464.44;5082799;27;45655;-76
2022/02/18 03:54:20;;;;;;;;;2.00;2.00;;;;;12.05;87.33;100447.91;5101022;27;45299;-76
2022/02/18 03:56:46;;;;;;;;;3.00;3.00;;;;;12.05;86.66;100439.06;5100932;27;45932;-75
2022/02/18 03:59:11;;;;;;;;;2.00;2.00;;;;;12.15;87.40;100439.59;5100937;27;45326;-75
2022/02/18 04:01:37;;;;;;;;;2.67;2.33;;;;;12.11;86.90;100425.84;5100791;27;45340;-76
2022/02/18 04:04:02;;;;;;;;;0.33;0.33;;;;;12.16;87.61;100429.78;5082325;27;46837;-76
2022/02/18 04:06:27;;;;;;;;;1.00;1.00;;;;;12.14;87.71;100421.97;5100774;27;45345;-76
2022/02/18 04:08:53;;;;;;;;;0.00;0.00;;;;;12.20;87.78;100429.22;5100791;27;45249;-76
2022/02/18 04:11:19;;;;;;;;;1.00;0.33;;;;;12.27;86.92;100433.78;5082513;27;45279;-76
2022/02/18 04:13:44;;;;;;;;;0.00;0.00;;;;;12.22;87.17;100423.69;5100682;27;45295;-75
2022/02/18 04:16:09;;;;;;;;;0.33;0.00;;;;;12.31;86.67;100432.34;5100512;27;46143;-76
2022/02/18 04:18:35;;;;;;;;;1.33;0.33;;;;;12.29;87.30;100421.91;5082113;27;45312;-76
2022/02/18 04:21:01;;;;;;;;;0.00;0.00;;;;;12.28;86.55;100416.75;5082252;27;45336;-75
2022/02/18 04:23:26;;;;;;;;;0.00;0.00;;;;;12.24;85.96;100395.00;5100338;27;45461;-75
2022/02/18 04:25:51;;;;;;;;;0.00;0.00;;;;;12.30;86.19;100394.22;5100517;27;45320;-76
2022/02/18 04:28:17;;;;;;;;;0.00;0.00;;;;;12.22;86.34;100387.19;5100587;27;45294;-75
2022/02/18 04:30:43;;;;;;;;;0.00;0.00;;;;;12.24;85.88;100389.66;5100563;27;45307;-75
2022/02/18 04:33:08;;;;;;;;;0.00;0.00;;;;;12.16;86.31;100369.34;5100130;27;46159;-76
2022/02/18 04:35:34;;;;;;;;;0.00;0.00;;;;;12.29;86.34;100383.75;5100426;27;45834;-76
2022/02/18 04:38:00;;;;;;;;;0.00;0.00;;;;;12.30;85.93;100391.56;5090682;27;45204;-76
2022/02/18 04:40:25;;;;;;;;;0.00;0.00;;;;;12.32;85.72;100388.69;5079926;28;45421;-76
2022/02/18 04:42:51;;;;;;;;;0.00;0.00;;;;;12.29;85.95;100375.75;5079840;28;45474;-75
2022/02/18 04:45:16;;;;;;;;;0.00;0.00;;;;;12.30;85.53;100377.44;5061416;28;47962;-75
2022/02/18 04:47:42;;;;;;;;;0.00;0.00;;;;;12.29;85.57;100378.44;5079929;28;45332;-75
2022/02/18 04:50:08;;;;;;;;;0.00;0.00;;;;;12.31;85.36;100365.75;5061785;28;45356;-76
2022/02/18 04:52:33;;;;;;;;;0.00;0.00;;;;;12.36;85.51;100373.97;5079780;28;45296;-75
2022/02/18 04:55:00;;;;;;;;;0.00;0.00;;;;;12.28;85.26;100350.13;5079482;28;45322;-75
2022/02/18 04:57:26;;;;;;;;;0.00;0.00;;;;;12.35;85.14;100369.66;5079820;28;45268;-76
2022/02/18 04:59:51;;;;;;;;;0.00;0.00;;;;;12.27;85.14;100348.50;5079629;28;45407;-76
2022/02/18 05:02:17;;;;;;;;;0.00;0.00;;;;;12.27;85.24;100356.50;5079630;28;45287;-76
2022/02/18 05:04:43;;;;;;;;;0.00;0.00;;;;;12.36;84.75;100363.28;5079580;28;45591;-75
2022/02/18 05:07:08;;;;;;;;;0.00;0.00;;;;;12.36;84.93;100372.13;5061393;28;45906;-76
2022/02/18 05:09:34;;;;;;;;;0.00;0.00;;;;;12.36;84.38;100348.16;5079643;28;45345;-76
2022/02/18 05:11:59;;;;;;;;;0.00;0.00;;;;;12.36;84.51;100344.66;5061347;28;45628;-75
2022/02/18 05:14:24;;;;;;;;;0.00;0.00;;;;;12.33;84.86;100331.75;5079417;28;46286;-76
2022/02/18 05:16:50;;;;;;;;;0.00;0.00;;;;;12.34;84.93;100336.88;5061298;28;45308;-75
2022/02/18 05:19:15;;;;;;;;;0.00;0.00;;;;;12.30;84.49;100310.81;5079428;28;45251;-76
2022/02/18 05:21:40;;;;;;;;;0.00;0.00;;;;;12.35;84.40;100322.53;5079462;28;45609;-76
2022/02/18 05:24:07;;;;;;;;;0.00;0.00;;;;;12.27;84.46;100298.69;5079269;28;45283;-76
2022/02/18 05:26:32;;;;;;;;;0.00;0.00;;;;;12.39;84.81;100312.28;5061096;28;45865;-75
2022/02/18 05:28:58;;;;;;;;;0.00;0.00;;;;;12.42;84.25;100309.22;5079518;28;45285;-76
2022/02/18 05:31:24;;;;;;;;;0.00;0.00;;;;;12.37;84.22;100298.34;5079179;28;45311;-76
2022/02/18 05:33:49;;;;;;;;;0.00;0.00;;;;;12.43;84.19;100300.22;5079241;28;46098;-76
2022/02/18 05:36:15;;;;;;;;;0.00;0.00;;;;;12.35;84.56;100285.22;5079181;28;45360;-76
2022/02/18 05:38:43;;;;;;;;;0.00;0.00;;;;;12.34;84.23;100288.91;5094638;27;45322;-77
2022/02/18 05:41:12;;;;;;;;;0.00;0.00;;;;;12.42;84.08;100301.22;5099418;27;45174;-75
2022/02/18 05:43:38;;;;;;;;;0.00;0.00;;;;;12.33;84.63;100276.59;5099603;27;45409;-76
2022/02/18 05:46:04;;;;;;;;;0.00;0.00;;;;;12.40;84.79;100281.97;5101195;27;45761;-75
2022/02/18 05:48:31;;;;;;;;;0.00;0.00;;;;;12.41;84.22;100280.09;5103306;27;45295;-76
2022/02/18 05:50:56;;;;;;;;;0.00;0.00;;;;;12.39;84.14;100269.63;5103043;27;45415;-76
2022/02/18 05:53:21;;;;;;;;;0.33;0.33;;;;;12.40;84.54;100273.97;5102885;27;45425;-75
2022/02/18 05:55:47;;;;;;;;;0.00;0.00;;;;;12.32;84.67;100250.97;5102987;27;45218;-76
2022/02/18 05:58:12;;;;;;;;;0.00;0.00;;;;;12.41;84.33;100262.28;5084751;27;45204;-76
2022/02/18 06:00:38;;;;;;;;;0.00;0.00;;;;;12.41;84.19;100254.28;5102612;27;45319;-75
2022/02/18 06:03:03;;;;;;;;;0.33;0.00;;;;;12.35;84.26;100237.25;5084400;27;47473;-75
2022/02/18 06:05:28;;;;;;;;;0.00;0.00;;;;;12.42;84.40;100237.25;5084347;27;45304;-75
2022/02/18 06:07:54;;;;;;;;;0.00;0.00;;;;;12.34;84.73;100226.78;5102949;27;45254;-76
2022/02/18 06:10:19;;;;;;;;;0.00;0.00;;;;;12.41;84.69;100240.13;5102631;27;45259;-75
2022/02/18 06:12:44;;;;;;;;;0.00;0.00;;;;;12.42;84.18;100226.59;5102513;27;46980;-76
2022/02/18 06:15:10;;;;;;;;;0.00;0.00;;;;;12.39;84.29;100211.00;5084175;27;45234;-75
2022/02/18 06:17:39;;;;;;;;;0.00;0.00;;;;;12.32;84.42;100204.84;5102725;27;45206;-76
2022/02/18 06:20:07;;;;;;;;;0.00;0.00;;;;;12.45;83.92;100214.75;5102525;27;45545;-76
2022/02/18 06:22:32;;;;;;;;;0.00;0.00;;;;;12.35;84.28;100191.94;5083813;27;47341;-77
2022/02/18 06:24:57;;;;;;;;;0.00;0.00;;;;;12.36;84.42;100187.41;5102867;27;45248;-82
2022/02/18 06:27:23;;;;;;;;;0.00;0.00;;;;;12.42;84.13;100204.47;5102844;27;45219;-79
2022/02/18 06:29:49;;;;;;;;;0.00;0.00;;;;;12.40;84.59;100188.69;5095350;27;45355;-79
2022/02/18 06:32:14;;;;;;;;;0.00;0.00;;;;;12.36;84.36;100180.25;5087709;27;45935;-78
2022/02/18 06:34:40;;;;;;;;;0.00;0.00;;;;;12.37;84.52;100181.88;5102561;27;45244;-80
2022/02/18 06:37:05;;;;;;;;;0.00;0.00;;;;;12.37;84.38;100181.09;5122855;27;45182;-78
2022/02/18 06:39:35;;;;;;;;;0.00;0.00;;;;;12.34;84.51;100181.50;5122807;27;45278;-78
2022/02/18 06:42:01;;;;;;;;;0.00;0.00;;;;;12.32;83.98;100167.53;5122627;27;45303;-79
2022/02/18 06:44:26;;;;;;;;;0.00;0.00;;;;;12.24;84.13;100136.56;5122647;27;45388;-78
2022/02/18 06:46:52;;;;;;;;;1.00;0.00;;;;;12.38;83.81;100166.75;5122803;27;45434;-77
2022/02/18 06:49:17;;;;;;;;;1.00;1.00;;;;;12.34;83.82;100149.50;5122838;27;45300;-78
2022/02/18 06:51:42;;;;;;;;;1.00;0.00;;;;;12.34;83.72;100161.00;5122624;27;45267;-79
2022/02/18 06:54:08;;;;;;;;;0.00;0.00;;;;;12.35;83.67;100159.13;5122238;27;45851;-79
2022/02/18 06:56:33;;;;;;;;;0.00;0.00;;;;;12.39;83.54;100163.03;5103550;27;45336;-79
2022/02/18 06:58:58;;;;;;;;;0.00;0.00;;;;;12.32;83.78;100140.88;5122580;27;45247;-78
2022/02/18 07:01:24;;;;;;;;;0.67;0.00;;;;;12.37;83.84;100144.59;5103493;27;47103;-76
2022/02/18 07:03:49;;;;;;;;;2.00;2.00;;;;;12.30;83.52;100129.63;5103985;27;45973;-76
2022/02/18 07:06:14;;;;;;;;;2.33;0.67;;;;;12.32;83.54;100132.88;5122468;27;45287;-77
2022/02/18 07:08:40;;;;;;;;;1.00;1.00;;;;;12.33;83.30;100115.91;5103828;27;47348;-79
2022/02/18 07:11:05;;;;;;;;;0.00;0.00;;;;;12.34;83.45;100114.88;5103660;27;47720;-76
2022/02/18 07:13:30;;;;;;;;;0.00;0.00;;;;;12.32;83.47;100107.06;5122445;27;45250;-75
2022/02/18 07:15:56;;;;;;;;;0.00;0.00;;;;;12.37;83.06;100101.16;5100446;27;45558;-77
2022/02/18 07:18:22;;;;;;;;;0.33;0.33;;;;;12.39;82.92;100098.28;5099786;27;45464;-76
2022/02/18 07:20:48;;;;;;;;;0.33;0.00;;;;;12.43;82.82;100108.34;5099611;27;46004;-76
2022/02/18 07:23:13;;;;;;;;;0.00;0.00;;;;;12.44;82.80;100109.97;5081550;27;45327;-76
2022/02/18 07:25:39;;;;;;;;;1.00;1.00;;;;;12.44;82.60;100107.31;5099817;27;45360;-76
2022/02/18 07:28:04;;;;;;;;;2.67;1.67;;;;;12.44;83.01;100117.13;5099727;27;45274;-76
2022/02/18 07:30:30;;;;;;;;;1.00;1.00;;;;;12.33;82.73;100106.03;5099978;27;45597;-77
2022/02/18 07:32:55;;;;;;;;;0.33;0.33;;;;;12.40;83.01;100106.06;5082835;27;45337;-77
2022/02/18 07:35:20;;;;;;;;;2.33;2.33;;;;;12.40;82.85;100107.91;5101409;27;45307;-76
2022/02/18 07:37:49;;;;;;;;;2.00;2.00;;;;;12.39;82.51;100096.41;5082710;27;47486;-76
2022/02/18 07:40:15;;;;;;;;;1.00;1.00;;;;;12.50;82.86;100103.84;5100985;27;46109;-77
2022/02/18 07:42:42;;;;;;;;;1.67;1.00;;;;;12.46;82.84;100096.44;5082633;27;45441;-77
2022/02/18 07:45:08;;;;;;;;;0.00;0.00;;;;;12.44;82.27;100090.50;5089475;27;45557;-77
2022/02/18 07:47:33;;;;;;;;;4.00;1.00;;;;;12.36;82.58;100059.50;5086536;27;45265;-78
2022/02/18 07:49:59;;;;;;;;;2.00;2.00;;;;;12.44;82.44;100077.16;5079894;28;45657;-80
2022/02/18 07:52:25;;;;;;;;;0.67;0.67;;;;;12.42;82.18;100066.69;5080797;28;45295;-77
2022/02/18 07:54:50;;;;;;;;;0.00;0.00;;;;;12.43;82.15;100072.88;5080426;28;45377;-76
2022/02/18 07:57:15;;;;;;;;;2.00;0.00;;;;;12.39;82.45;100077.75;5061704;28;45750;-78
2022/02/18 07:59:41;;;;;;;;;3.67;1.00;;;;;12.53;82.39;100085.78;5080250;28;45224;-78
2022/02/18 08:02:06;;;;;;;;;2.00;2.00;;;;;12.44;82.41;100066.50;5080272;28;45292;-78
2022/02/18 08:04:32;;;;;;;;;1.00;0.00;;;;;12.56;82.06;100088.03;5100580;27;45585;-79
2022/02/18 08:06:57;;;;;;;;;0.00;0.00;;;;;12.39;82.23;100061.78;5100257;27;45233;-79
2022/02/18 08:09:23;;;;;;;;;1.00;1.00;;;;;12.58;82.02;100088.66;5099342;27;45422;-78
2022/02/18 08:11:48;;;;;;;;;0.00;0.00;;;;;12.56;81.67;100074.72;5100257;27;45357;-80
2022/02/18 08:14:19;;;;;;;;;0.00;0.00;;;;;12.50;81.49;100066.53;5081947;27;45341;-79
2022/02/18 08:17:43;;;;;;;;;0.00;0.00;;;;;12.01;81.60;99977.91;5078898;27;45375;-80
2022/02/18 08:20:53;;;;;;;;;2.00;0.33;;;;;12.62;81.41;100057.91;5044791;27;46011;-80
2022/02/18 08:26:55;;;;;;;;;0.00;0.00;;;;;12.23;81.13;99980.41;5035837;28;45626;-79
2022/02/18 08:29:21;;;;;;;;;1.00;1.00;;;;;12.24;81.47;99974.88;5046514;27;45179;-78
2022/02/18 08:35:26;;;;;;;;;0.00;0.00;;;;;12.40;81.17;99985.31;5054573;28;45245;-79
2022/02/18 08:38:27;;;;;;;;;0.00;0.00;;;;;12.78;80.82;100050.53;5056598;28;45297;-79
2022/02/18 08:41:53;;;;;;;;;;;;;;;;;;;;;
2022/02/18 08:48:02;;;;;;;;;0.67;0.67;;;;;12.57;80.00;99997.22;4967761;28;45369;-78
2022/02/18 08:51:10;;;;;;;;;0.00;0.00;;;;;12.32;80.35;99936.56;5016558;28;45315;-79
2022/02/18 08:53:41;;;;;;;;;0.33;0.33;;;;;12.61;79.70;99974.44;5047227;27;45811;-77
2022/02/18 08:56:11;;;;;;;;;0.00;0.00;;;;;12.40;80.08;99943.53;5106987;27;45454;-77
2022/02/18 09:02:27;;;;;;;;;;;;;;;;;;;;;
2022/02/18 09:05:09;;;;;;;;;1.00;1.00;;;;;12.86;79.80;99940.97;5094439;27;73434;-79
2022/02/18 09:08:31;;;;;;;;;;;;;;;;;;;;;
2022/02/18 09:17:47;;;;;;;;;0.00;0.00;;;;;13.03;78.76;99945.84;5031776;27;45332;-82
2022/02/18 09:20:12;;;;;;;;;0.00;0.00;;;;;13.42;78.81;100016.13;5122462;27;45266;-81
2022/02/18 09:22:38;;;;;;;;;0.00;0.00;;;;;13.28;78.95;100003.84;5123854;27;45330;-80
2022/02/18 09:25:03;;;;;;;;;0.33;0.33;;;;;13.36;78.71;100028.47;5088206;27;45601;-76
2022/02/18 09:27:29;;;;;;;;;0.00;0.00;;;;;13.34;78.71;100013.69;5083514;27;46368;-78
2022/02/18 09:29:56;;;;;;;;;0.00;0.00;;;;;13.32;78.45;100027.25;5112491;27;46398;-78
2022/02/18 09:32:22;;;;;;;;;1.00;1.00;;;;;13.20;79.12;100000.38;5119617;27;45373;-77
2022/02/18 09:34:47;;;;;;;;;0.00;0.00;;;;;13.18;79.29;99998.97;5104493;27;45305;-78
2022/02/18 09:37:15;;;;;;;;;0.00;0.00;;;;;13.18;79.45;99996.28;5103040;27;45490;-75
2022/02/18 09:39:42;;;;;;;;;0.00;0.00;;;;;13.13;79.46;100002.25;5084756;27;48227;-79
2022/02/18 09:42:08;;;;;;;;;0.00;0.00;;;;;13.13;79.72;100007.59;5103143;27;45321;-79
2022/02/18 09:44:35;;;;;;;;;0.00;0.00;;;;;13.03;79.87;99996.53;5084106;27;45497;-83
2022/02/18 09:47:01;;;;;;;;;0.00;0.00;;;;;13.08;80.13;99991.41;5084038;27;46522;-78
2022/02/18 09:49:27;;;;;;;;;0.00;0.00;;;;;12.99;80.21;99977.47;5100458;27;45435;-79
2022/02/18 09:51:54;;;;;;;;;0.00;0.00;;;;;13.07;80.24;99993.25;5100458;27;45755;-77
2022/02/18 09:54:20;;;;;;;;;0.00;0.00;;;;;13.05;80.08;99994.50;5101023;27;45408;-79
2022/02/18 09:56:47;;;;;;;;;0.00;0.00;;;;;12.93;80.69;99964.97;5083013;27;45975;-80
2022/02/18 09:59:13;;;;;;;;;0.00;0.00;;;;;12.97;80.99;99991.03;5079742;27;47870;-78
2022/02/18 10:01:39;;;;;;;;;0.00;0.00;;;;;12.92;81.46;99968.66;5097278;27;45607;-79
2022/02/18 10:04:04;;;;;;;;;0.00;0.00;;;;;12.93;81.68;99978.31;5100867;27;45381;-78
2022/02/18 10:06:31;;;;;;;;;0.00;0.00;;;;;12.87;82.13;99958.63;5102059;27;45363;-79
2022/02/18 10:08:59;;;;;;;;;1.33;0.67;;;;;12.96;81.80;99967.22;5102063;27;45756;-78
2022/02/18 10:11:25;;;;;;;;;0.00;0.00;;;;;13.07;81.94;99965.75;5102752;27;45329;-79
2022/02/18 10:13:53;;;;;;;;;0.00;0.00;;;;;13.09;81.93;99975.19;5084184;27;45359;-78
2022/02/18 10:16:23;;;;;;;;;0.33;0.33;;;;;13.13;82.07;99970.25;5084045;27;47239;-79
2022/02/18 10:18:52;;;;;;;;;0.00;0.00;;;;;13.12;82.30;99961.44;5083682;27;46822;-79
2022/02/18 10:21:21;;;;;;;;;0.00;0.00;;;;;13.12;82.27;99957.94;5079570;28;45273;-79
2022/02/18 10:23:46;;;;;;;;;0.00;0.00;;;;;13.08;82.71;99951.41;5082279;28;45325;-79
2022/02/18 10:26:12;;;;;;;;;1.00;0.00;;;;;13.25;82.14;99949.06;5097890;27;47565;-78
2022/02/18 10:28:38;;;;;;;;;0.00;0.00;;;;;13.30;82.30;99948.44;5104782;27;47332;-77
2022/02/18 10:31:06;;;;;;;;;0.00;0.00;;;;;13.34;81.84;99934.47;5103750;27;45326;-76
2022/02/18 10:33:35;;;;;;;;;0.00;0.00;;;;;13.32;81.92;99941.03;5105039;27;45319;-76
2022/02/18 10:36:03;;;;;;;;;0.00;0.00;;;;;13.37;82.34;99927.88;5123490;27;45241;-79
2022/02/18 10:38:37;;;;;;;;;0.00;0.00;;;;;13.47;81.85;99932.75;5103926;27;49801;-78
2022/02/18 10:41:23;;;;;;;;;0.00;0.00;;;;;13.49;81.23;99928.88;5122433;27;45359;-79
2022/02/18 10:43:49;;;;;;;;;3.67;0.00;;;;;13.47;81.07;99911.41;5104333;27;45371;-78
2022/02/18 10:46:15;;;;;;;;;0.00;0.00;;;;;13.47;81.17;99922.09;5103957;27;46300;-79
2022/02/18 10:48:49;;;;;;;;;0.00;0.00;;;;;13.54;81.07;99946.09;5104084;27;48669;-80
2022/02/18 10:51:22;;;;;;;;;2.00;0.00;;;;;13.57;81.14;99937.66;5122639;27;45332;-79
2022/02/18 10:53:49;;;;;;;;;0.33;0.33;;;;;13.68;80.77;99928.97;5104308;27;45356;-79
2022/02/18 10:56:17;;;;;;;;;0.00;0.00;;;;;13.64;80.47;99917.06;5124552;27;45250;-79
2022/02/18 10:58:52;;;;;;;;;0.00;0.00;;;;;13.69;80.23;99916.44;5122514;27;45271;-78
2022/02/18 11:01:17;;;;;;;;;0.00;0.00;;;;;13.64;80.25;99906.41;5122584;27;45234;-79
2022/02/18 11:03:45;;;;;;;;;0.00;0.00;;;;;13.61;80.13;99912.16;5123113;27;45320;-81
2022/02/18 11:06:24;;;;;;;;;0.00;0.00;;;;;13.58;80.37;99924.09;5123025;27;45468;-79
2022/02/18 11:08:53;;;;;;;;;0.00;0.00;;;;;13.54;80.21;99917.56;5122617;27;46152;-79
2022/02/18 11:11:20;;;;;;;;;0.00;0.00;;;;;13.39;80.54;99889.25;5122406;27;45221;-80
2022/02/18 11:13:47;;;;;;;;;0.67;0.67;;;;;13.42;80.46;99898.69;5122463;27;45342;-77
2022/02/18 11:16:18;;;;;;;;;0.00;0.00;;;;;13.35;80.90;99888.03;5122110;27;45321;-77
2022/02/18 11:18:45;;;;;;;;;0.00;0.00;;;;;13.35;81.19;99903.25;5108293;27;45590;-80
2022/02/18 11:21:13;;;;;;;;;0.33;0.33;;;;;13.25;81.02;99893.84;5083078;27;45634;-78
2022/02/18 11:23:42;;;;;;;;;0.00;0.00;;;;;13.23;81.18;99901.25;5101574;27;45313;-77
2022/02/18 11:26:10;;;;;;;;;0.00;0.00;;;;;13.05;81.19;99869.13;5101210;27;45621;-78
2022/02/18 11:28:35;;;;;;;;;0.00;0.00;;;;;13.16;81.37;99899.63;5101431;27;45290;-77
2022/02/18 11:31:05;;;;;;;;;2.00;2.00;;;;;13.24;81.45;99897.56;5082720;27;45828;-78
2022/02/18 11:33:42;;;;;;;;;0.00;0.00;;;;;13.25;81.76;99885.03;5101660;27;45297;-79
2022/02/18 11:36:13;;;;;;;;;2.00;0.00;;;;;13.33;81.66;99881.28;5101549;27;45304;-76
2022/02/18 11:38:48;;;;;;;;;0.00;0.00;;;;;13.31;81.58;99870.00;5101522;27;45252;-77
2022/02/18 11:41:40;;;;;;;;;0.00;0.00;;;;;13.31;82.04;99876.16;5077998;27;45961;-77
2022/02/18 11:44:08;;;;;;;;;0.00;0.00;;;;;13.21;82.99;99857.97;5086069;27;45597;-77
2022/02/18 11:46:34;;;;;;;;;0.67;0.67;;;;;13.21;83.14;99863.31;5085762;27;47250;-78
2022/02/18 11:49:01;;;;;;;;;1.00;1.00;;;;;13.07;83.32;99843.03;5100908;27;45542;-79
2022/02/18 11:51:46;;;;;;;;;0.00;0.00;;;;;12.97;83.33;99852.34;5079218;28;45340;-82